sensor_id;sensor_type;location;lat;lon;timestamp;temperature;humidity
63875;DHT22;51595;24.180;-110.296;2022-07-22T00:00:54;41.40;43.20
63875;DHT22;51595;24.180;-110.296;2022-07-22T00:03:21;41.00;44.20
63875;DHT22;51595;24.180;-110.296;2022-07-22T00:05:47;40.60;43.90
63875;DHT22;51595;24.180;-110.296;2022-07-22T00:08:14;40.20;44.30
63875;DHT22;51595;24.180;-110.296;2022-07-22T00:10:40;40.30;44.00
63875;DHT22;51595;24.180;-110.296;2022-07-22T00:13:08;40.90;44.30
63875;DHT22;51595;24.180;-110.296;2022-07-22T00:15:34;40.90;45.40
63875;DHT22;51595;24.180;-110.296;2022-07-22T00:18:01;40.70;43.80
63875;DHT22;51595;24.180;-110.296;2022-07-22T00:20:27;40.60;45.40
63875;DHT22;51595;24.180;-110.296;2022-07-22T00:22:54;40.80;44.50
63875;DHT22;51595;24.180;-110.296;2022-07-22T00:25:21;41.10;44.30
63875;DHT22;51595;24.180;-110.296;2022-07-22T00:27:47;41.10;44.10
63875;DHT22;51595;24.180;-110.296;2022-07-22T00:30:14;40.60;45.70
63875;DHT22;51595;24.180;-110.296;2022-07-22T00:32:40;40.20;46.00
63875;DHT22;51595;24.180;-110.296;2022-07-22T00:35:07;40.10;46.50
63875;DHT22;51595;24.180;-110.296;2022-07-22T00:37:34;39.90;46.40
63875;DHT22;51595;24.180;-110.296;2022-07-22T00:40:00;40.40;46.60
63875;DHT22;51595;24.180;-110.296;2022-07-22T00:42:26;40.60;47.60
63875;DHT22;51595;24.180;-110.296;2022-07-22T00:44:53;40.90;51.50
63875;DHT22;51595;24.180;-110.296;2022-07-22T00:47:19;41.20;52.40
63875;DHT22;51595;24.180;-110.296;2022-07-22T00:49:46;40.40;52.10
63875;DHT22;51595;24.180;-110.296;2022-07-22T00:52:13;40.20;51.00
63875;DHT22;51595;24.180;-110.296;2022-07-22T00:54:39;40.20;48.90
63875;DHT22;51595;24.180;-110.296;2022-07-22T00:57:06;39.80;49.50
63875;DHT22;51595;24.180;-110.296;2022-07-22T00:59:32;39.10;51.20
63875;DHT22;51595;24.180;-110.296;2022-07-22T01:01:59;38.70;52.20
63875;DHT22;51595;24.180;-110.296;2022-07-22T01:04:25;38.10;54.00
63875;DHT22;51595;24.180;-110.296;2022-07-22T01:06:52;37.30;55.80
63875;DHT22;51595;24.180;-110.296;2022-07-22T01:09:18;37.20;56.20
63875;DHT22;51595;24.180;-110.296;2022-07-22T01:11:45;36.80;56.80
63875;DHT22;51595;24.180;-110.296;2022-07-22T01:14:11;36.60;57.50
63875;DHT22;51595;24.180;-110.296;2022-07-22T01:16:38;36.50;57.30
63875;DHT22;51595;24.180;-110.296;2022-07-22T01:19:05;36.30;57.20
63875;DHT22;51595;24.180;-110.296;2022-07-22T01:21:32;36.20;58.20
63875;DHT22;51595;24.180;-110.296;2022-07-22T01:24:00;36.10;59.30
63875;DHT22;51595;24.180;-110.296;2022-07-22T01:26:27;35.90;59.80
63875;DHT22;51595;24.180;-110.296;2022-07-22T01:28:53;36.00;60.10
63875;DHT22;51595;24.180;-110.296;2022-07-22T01:31:20;35.60;61.00
63875;DHT22;51595;24.180;-110.296;2022-07-22T01:33:46;35.50;61.50
63875;DHT22;51595;24.180;-110.296;2022-07-22T01:36:13;35.30;62.40
63875;DHT22;51595;24.180;-110.296;2022-07-22T01:38:39;35.20;62.80
63875;DHT22;51595;24.180;-110.296;2022-07-22T01:41:06;35.20;63.10
63875;DHT22;51595;24.180;-110.296;2022-07-22T01:43:33;35.10;63.30
63875;DHT22;51595;24.180;-110.296;2022-07-22T01:46:00;35.10;63.40
63875;DHT22;51595;24.180;-110.296;2022-07-22T01:48:27;35.00;62.90
63875;DHT22;51595;24.180;-110.296;2022-07-22T01:50:53;35.10;61.60
63875;DHT22;51595;24.180;-110.296;2022-07-22T01:53:20;35.00;63.40
63875;DHT22;51595;24.180;-110.296;2022-07-22T01:55:46;34.80;64.90
63875;DHT22;51595;24.180;-110.296;2022-07-22T01:58:13;34.60;65.20
63875;DHT22;51595;24.180;-110.296;2022-07-22T02:00:40;34.60;65.30
63875;DHT22;51595;24.180;-110.296;2022-07-22T02:03:06;34.60;65.30
63875;DHT22;51595;24.180;-110.296;2022-07-22T02:05:34;34.60;66.40
63875;DHT22;51595;24.180;-110.296;2022-07-22T02:08:02;34.50;66.60
63875;DHT22;51595;24.180;-110.296;2022-07-22T02:10:29;34.40;66.70
63875;DHT22;51595;24.180;-110.296;2022-07-22T02:12:57;34.30;67.10
63875;DHT22;51595;24.180;-110.296;2022-07-22T02:15:23;34.30;66.70
63875;DHT22;51595;24.180;-110.296;2022-07-22T02:17:50;34.40;67.00
63875;DHT22;51595;24.180;-110.296;2022-07-22T02:20:17;34.30;66.60
63875;DHT22;51595;24.180;-110.296;2022-07-22T02:22:43;34.30;67.20
63875;DHT22;51595;24.180;-110.296;2022-07-22T02:25:10;34.20;83.60
63875;DHT22;51595;24.180;-110.296;2022-07-22T02:27:37;33.40;89.00
63875;DHT22;51595;24.180;-110.296;2022-07-22T02:30:04;32.70;93.40
63875;DHT22;51595;24.180;-110.296;2022-07-22T02:32:31;32.50;96.90
63875;DHT22;51595;24.180;-110.296;2022-07-22T02:34:58;32.30;99.50
63875;DHT22;51595;24.180;-110.296;2022-07-22T02:37:24;32.30;99.70
63875;DHT22;51595;24.180;-110.296;2022-07-22T02:39:51;32.10;99.90
63875;DHT22;51595;24.180;-110.296;2022-07-22T02:42:17;32.10;99.90
63875;DHT22;51595;24.180;-110.296;2022-07-22T02:44:44;32.00;99.90
63875;DHT22;51595;24.180;-110.296;2022-07-22T02:47:10;32.10;99.90
63875;DHT22;51595;24.180;-110.296;2022-07-22T02:49:37;31.80;99.90
63875;DHT22;51595;24.180;-110.296;2022-07-22T02:52:03;31.70;99.90
63875;DHT22;51595;24.180;-110.296;2022-07-22T02:54:30;31.80;99.90
63875;DHT22;51595;24.180;-110.296;2022-07-22T02:56:56;32.00;99.90
63875;DHT22;51595;24.180;-110.296;2022-07-22T02:59:23;32.30;96.60
63875;DHT22;51595;24.180;-110.296;2022-07-22T03:01:49;32.40;88.50
63875;DHT22;51595;24.180;-110.296;2022-07-22T03:04:16;32.60;82.00
63875;DHT22;51595;24.180;-110.296;2022-07-22T03:06:42;32.90;77.80
63875;DHT22;51595;24.180;-110.296;2022-07-22T03:09:09;33.00;73.70
63875;DHT22;51595;24.180;-110.296;2022-07-22T03:11:35;32.90;72.50
63875;DHT22;51595;24.180;-110.296;2022-07-22T03:14:01;32.80;71.70
63875;DHT22;51595;24.180;-110.296;2022-07-22T03:16:28;32.70;71.00
63875;DHT22;51595;24.180;-110.296;2022-07-22T03:18:54;32.60;71.00
63875;DHT22;51595;24.180;-110.296;2022-07-22T03:21:21;32.70;71.00
63875;DHT22;51595;24.180;-110.296;2022-07-22T03:23:47;32.50;69.80
63875;DHT22;51595;24.180;-110.296;2022-07-22T03:26:21;32.40;70.40
63875;DHT22;51595;24.180;-110.296;2022-07-22T03:28:47;32.30;70.40
63875;DHT22;51595;24.180;-110.296;2022-07-22T03:31:14;32.30;70.70
63875;DHT22;51595;24.180;-110.296;2022-07-22T03:33:40;32.20;70.80
63875;DHT22;51595;24.180;-110.296;2022-07-22T03:36:07;32.20;71.10
63875;DHT22;51595;24.180;-110.296;2022-07-22T03:38:35;32.20;72.20
63875;DHT22;51595;24.180;-110.296;2022-07-22T03:41:02;32.20;71.10
63875;DHT22;51595;24.180;-110.296;2022-07-22T03:43:29;32.10;71.10
63875;DHT22;51595;24.180;-110.296;2022-07-22T03:45:56;32.10;71.00
63875;DHT22;51595;24.180;-110.296;2022-07-22T03:48:23;32.00;70.80
63875;DHT22;51595;24.180;-110.296;2022-07-22T03:50:49;32.00;70.80
63875;DHT22;51595;24.180;-110.296;2022-07-22T03:53:17;32.10;70.50
63875;DHT22;51595;24.180;-110.296;2022-07-22T03:55:43;32.10;70.60
63875;DHT22;51595;24.180;-110.296;2022-07-22T03:58:10;32.00;70.50
63875;DHT22;51595;24.180;-110.296;2022-07-22T04:00:36;32.00;71.00
63875;DHT22;51595;24.180;-110.296;2022-07-22T04:03:03;31.90;71.50
63875;DHT22;51595;24.180;-110.296;2022-07-22T04:05:29;31.90;71.50
63875;DHT22;51595;24.180;-110.296;2022-07-22T04:07:55;31.80;71.80
63875;DHT22;51595;24.180;-110.296;2022-07-22T04:10:22;31.80;72.00
63875;DHT22;51595;24.180;-110.296;2022-07-22T04:12:48;31.90;72.10
63875;DHT22;51595;24.180;-110.296;2022-07-22T04:15:15;31.90;72.40
63875;DHT22;51595;24.180;-110.296;2022-07-22T04:17:41;31.80;72.80
63875;DHT22;51595;24.180;-110.296;2022-07-22T04:20:08;31.60;74.20
63875;DHT22;51595;24.180;-110.296;2022-07-22T04:22:35;31.30;75.80
63875;DHT22;51595;24.180;-110.296;2022-07-22T04:25:02;31.10;77.30
63875;DHT22;51595;24.180;-110.296;2022-07-22T04:27:28;31.00;78.10
63875;DHT22;51595;24.180;-110.296;2022-07-22T04:29:54;31.10;78.30
63875;DHT22;51595;24.180;-110.296;2022-07-22T04:32:21;31.10;78.40
63875;DHT22;51595;24.180;-110.296;2022-07-22T04:34:47;31.00;78.10
63875;DHT22;51595;24.180;-110.296;2022-07-22T04:37:14;31.00;78.10
63875;DHT22;51595;24.180;-110.296;2022-07-22T04:39:40;31.00;78.20
63875;DHT22;51595;24.180;-110.296;2022-07-22T04:42:07;31.00;78.80
63875;DHT22;51595;24.180;-110.296;2022-07-22T04:44:33;30.90;79.40
63875;DHT22;51595;24.180;-110.296;2022-07-22T04:47:00;30.90;79.80
63875;DHT22;51595;24.180;-110.296;2022-07-22T04:49:26;30.90;80.90
63875;DHT22;51595;24.180;-110.296;2022-07-22T04:51:53;30.90;80.60
63875;DHT22;51595;24.180;-110.296;2022-07-22T04:54:19;30.70;81.50
63875;DHT22;51595;24.180;-110.296;2022-07-22T04:56:46;30.50;82.30
63875;DHT22;51595;24.180;-110.296;2022-07-22T04:59:12;30.30;83.40
63875;DHT22;51595;24.180;-110.296;2022-07-22T05:01:38;30.00;84.80
63875;DHT22;51595;24.180;-110.296;2022-07-22T05:04:05;29.90;86.00
63875;DHT22;51595;24.180;-110.296;2022-07-22T05:06:31;29.90;86.60
63875;DHT22;51595;24.180;-110.296;2022-07-22T05:08:58;29.80;87.40
63875;DHT22;51595;24.180;-110.296;2022-07-22T05:11:24;29.60;88.30
63875;DHT22;51595;24.180;-110.296;2022-07-22T05:13:51;29.60;88.90
63875;DHT22;51595;24.180;-110.296;2022-07-22T05:16:17;29.70;89.10
63875;DHT22;51595;24.180;-110.296;2022-07-22T05:18:44;29.70;89.20
63875;DHT22;51595;24.180;-110.296;2022-07-22T05:21:10;29.80;89.30
63875;DHT22;51595;24.180;-110.296;2022-07-22T05:23:37;29.60;89.80
63875;DHT22;51595;24.180;-110.296;2022-07-22T05:26:07;29.50;90.30
63875;DHT22;51595;24.180;-110.296;2022-07-22T05:28:33;29.30;90.80
63875;DHT22;51595;24.180;-110.296;2022-07-22T05:31:00;29.40;91.30
63875;DHT22;51595;24.180;-110.296;2022-07-22T05:33:26;29.30;91.40
63875;DHT22;51595;24.180;-110.296;2022-07-22T05:35:53;29.30;91.60
63875;DHT22;51595;24.180;-110.296;2022-07-22T05:38:19;29.40;91.70
63875;DHT22;51595;24.180;-110.296;2022-07-22T05:40:46;29.40;91.80
63875;DHT22;51595;24.180;-110.296;2022-07-22T05:43:12;29.40;92.00
63875;DHT22;51595;24.180;-110.296;2022-07-22T05:45:39;29.30;92.00
63875;DHT22;51595;24.180;-110.296;2022-07-22T05:48:05;29.40;92.10
63875;DHT22;51595;24.180;-110.296;2022-07-22T05:50:32;29.50;92.00
63875;DHT22;51595;24.180;-110.296;2022-07-22T05:52:58;29.30;92.40
63875;DHT22;51595;24.180;-110.296;2022-07-22T05:55:25;29.20;92.60
63875;DHT22;51595;24.180;-110.296;2022-07-22T05:57:51;29.10;92.90
63875;DHT22;51595;24.180;-110.296;2022-07-22T06:00:18;29.10;93.10
63875;DHT22;51595;24.180;-110.296;2022-07-22T06:02:44;29.20;93.20
63875;DHT22;51595;24.180;-110.296;2022-07-22T06:05:11;29.20;93.20
63875;DHT22;51595;24.180;-110.296;2022-07-22T06:07:38;29.20;93.40
63875;DHT22;51595;24.180;-110.296;2022-07-22T06:10:04;28.90;94.10
63875;DHT22;51595;24.180;-110.296;2022-07-22T06:12:31;28.80;94.50
63875;DHT22;51595;24.180;-110.296;2022-07-22T06:14:57;28.90;94.70
63875;DHT22;51595;24.180;-110.296;2022-07-22T06:17:23;28.90;94.80
63875;DHT22;51595;24.180;-110.296;2022-07-22T06:19:50;28.90;95.00
63875;DHT22;51595;24.180;-110.296;2022-07-22T06:22:16;29.00;95.00
63875;DHT22;51595;24.180;-110.296;2022-07-22T06:24:44;29.00;95.10
63875;DHT22;51595;24.180;-110.296;2022-07-22T06:27:10;28.90;95.20
63875;DHT22;51595;24.180;-110.296;2022-07-22T06:29:37;29.00;95.50
63875;DHT22;51595;24.180;-110.296;2022-07-22T06:32:03;28.60;96.10
63875;DHT22;51595;24.180;-110.296;2022-07-22T06:34:30;28.50;96.80
63875;DHT22;51595;24.180;-110.296;2022-07-22T06:36:56;28.50;97.00
63875;DHT22;51595;24.180;-110.296;2022-07-22T06:39:23;28.50;97.40
63875;DHT22;51595;24.180;-110.296;2022-07-22T06:41:49;28.50;97.50
63875;DHT22;51595;24.180;-110.296;2022-07-22T06:44:16;28.50;97.80
63875;DHT22;51595;24.180;-110.296;2022-07-22T06:46:42;28.50;97.70
63875;DHT22;51595;24.180;-110.296;2022-07-22T06:49:09;28.60;97.70
63875;DHT22;51595;24.180;-110.296;2022-07-22T06:51:35;28.60;97.80
63875;DHT22;51595;24.180;-110.296;2022-07-22T06:54:02;28.60;97.90
63875;DHT22;51595;24.180;-110.296;2022-07-22T06:56:28;28.60;97.90
63875;DHT22;51595;24.180;-110.296;2022-07-22T06:58:55;28.50;98.00
63875;DHT22;51595;24.180;-110.296;2022-07-22T07:01:21;28.50;98.00
63875;DHT22;51595;24.180;-110.296;2022-07-22T07:03:48;28.50;98.20
63875;DHT22;51595;24.180;-110.296;2022-07-22T07:06:14;28.40;98.50
63875;DHT22;51595;24.180;-110.296;2022-07-22T07:08:41;28.30;98.90
63875;DHT22;51595;24.180;-110.296;2022-07-22T07:11:07;28.30;99.10
63875;DHT22;51595;24.180;-110.296;2022-07-22T07:13:34;28.30;99.20
63875;DHT22;51595;24.180;-110.296;2022-07-22T07:16:01;28.20;99.30
63875;DHT22;51595;24.180;-110.296;2022-07-22T07:18:27;28.30;99.50
63875;DHT22;51595;24.180;-110.296;2022-07-22T07:20:54;28.30;99.50
63875;DHT22;51595;24.180;-110.296;2022-07-22T07:23:21;28.40;99.40
63875;DHT22;51595;24.180;-110.296;2022-07-22T07:25:48;28.50;99.00
63875;DHT22;51595;24.180;-110.296;2022-07-22T07:28:14;28.50;98.80
63875;DHT22;51595;24.180;-110.296;2022-07-22T07:30:41;28.50;98.80
63875;DHT22;51595;24.180;-110.296;2022-07-22T07:33:08;28.50;98.90
63875;DHT22;51595;24.180;-110.296;2022-07-22T07:35:34;28.50;99.10
63875;DHT22;51595;24.180;-110.296;2022-07-22T07:38:01;28.60;99.30
63875;DHT22;51595;24.180;-110.296;2022-07-22T07:40:28;28.70;98.70
63875;DHT22;51595;24.180;-110.296;2022-07-22T07:42:54;28.70;98.70
63875;DHT22;51595;24.180;-110.296;2022-07-22T07:45:21;28.60;98.80
63875;DHT22;51595;24.180;-110.296;2022-07-22T07:47:47;28.70;98.60
63875;DHT22;51595;24.180;-110.296;2022-07-22T07:50:14;28.80;98.50
63875;DHT22;51595;24.180;-110.296;2022-07-22T07:52:42;28.90;98.30
63875;DHT22;51595;24.180;-110.296;2022-07-22T07:55:09;28.90;98.20
63875;DHT22;51595;24.180;-110.296;2022-07-22T07:57:37;28.90;98.10
63875;DHT22;51595;24.180;-110.296;2022-07-22T08:00:07;28.90;98.20
63875;DHT22;51595;24.180;-110.296;2022-07-22T08:02:34;28.80;98.20
63875;DHT22;51595;24.180;-110.296;2022-07-22T08:05:01;28.80;98.40
63875;DHT22;51595;24.180;-110.296;2022-07-22T08:07:28;28.70;98.50
63875;DHT22;51595;24.180;-110.296;2022-07-22T08:09:55;28.80;98.50
63875;DHT22;51595;24.180;-110.296;2022-07-22T08:12:21;28.80;98.40
63875;DHT22;51595;24.180;-110.296;2022-07-22T08:14:48;28.90;98.50
63875;DHT22;51595;24.180;-110.296;2022-07-22T08:17:14;28.90;98.30
63875;DHT22;51595;24.180;-110.296;2022-07-22T08:19:41;28.80;98.40
63875;DHT22;51595;24.180;-110.296;2022-07-22T08:22:07;28.50;98.70
63875;DHT22;51595;24.180;-110.296;2022-07-22T08:24:34;28.40;99.20
63875;DHT22;51595;24.180;-110.296;2022-07-22T08:27:01;28.30;99.40
63875;DHT22;51595;24.180;-110.296;2022-07-22T08:29:28;28.10;99.90
63875;DHT22;51595;24.180;-110.296;2022-07-22T08:31:54;28.10;99.90
63875;DHT22;51595;24.180;-110.296;2022-07-22T08:34:21;27.90;99.90
63875;DHT22;51595;24.180;-110.296;2022-07-22T08:36:47;27.90;99.90
63875;DHT22;51595;24.180;-110.296;2022-07-22T08:39:14;27.80;99.90
63875;DHT22;51595;24.180;-110.296;2022-07-22T08:41:40;27.90;99.90
63875;DHT22;51595;24.180;-110.296;2022-07-22T08:44:09;27.80;99.90
63875;DHT22;51595;24.180;-110.296;2022-07-22T08:46:36;27.50;99.90
63875;DHT22;51595;24.180;-110.296;2022-07-22T08:49:03;27.30;99.90
63875;DHT22;51595;24.180;-110.296;2022-07-22T08:51:29;27.30;99.90
63875;DHT22;51595;24.180;-110.296;2022-07-22T08:53:56;27.30;99.90
63875;DHT22;51595;24.180;-110.296;2022-07-22T08:56:22;27.20;99.90
63875;DHT22;51595;24.180;-110.296;2022-07-22T08:58:49;27.00;99.90
63875;DHT22;51595;24.180;-110.296;2022-07-22T09:01:17;26.80;99.90
63875;DHT22;51595;24.180;-110.296;2022-07-22T09:03:51;26.90;99.90
63875;DHT22;51595;24.180;-110.296;2022-07-22T09:06:19;27.00;99.90
63875;DHT22;51595;24.180;-110.296;2022-07-22T09:11:22;27.00;99.90
63875;DHT22;51595;24.180;-110.296;2022-07-22T09:13:50;26.80;99.90
63875;DHT22;51595;24.180;-110.296;2022-07-22T09:16:18;27.00;99.90
63875;DHT22;51595;24.180;-110.296;2022-07-22T09:19:03;27.00;99.90
63875;DHT22;51595;24.180;-110.296;2022-07-22T09:21:35;26.90;99.90
63875;DHT22;51595;24.180;-110.296;2022-07-22T09:24:04;26.80;99.90
63875;DHT22;51595;24.180;-110.296;2022-07-22T09:26:38;26.80;99.90
63875;DHT22;51595;24.180;-110.296;2022-07-22T09:29:06;26.80;99.90
63875;DHT22;51595;24.180;-110.296;2022-07-22T09:31:34;26.90;99.90
63875;DHT22;51595;24.180;-110.296;2022-07-22T09:34:02;26.90;99.90
63875;DHT22;51595;24.180;-110.296;2022-07-22T09:36:29;26.70;99.90
63875;DHT22;51595;24.180;-110.296;2022-07-22T09:38:56;26.50;99.90
63875;DHT22;51595;24.180;-110.296;2022-07-22T09:41:23;26.60;99.90
63875;DHT22;51595;24.180;-110.296;2022-07-22T09:43:49;26.70;99.90
63875;DHT22;51595;24.180;-110.296;2022-07-22T09:46:16;26.70;99.90
63875;DHT22;51595;24.180;-110.296;2022-07-22T09:48:42;26.50;99.90
63875;DHT22;51595;24.180;-110.296;2022-07-22T09:51:09;26.40;99.90
63875;DHT22;51595;24.180;-110.296;2022-07-22T09:53:35;26.40;99.90
63875;DHT22;51595;24.180;-110.296;2022-07-22T09:56:05;26.30;99.90
63875;DHT22;51595;24.180;-110.296;2022-07-22T09:58:32;26.50;99.90
63875;DHT22;51595;24.180;-110.296;2022-07-22T10:01:03;26.50;99.90
63875;DHT22;51595;24.180;-110.296;2022-07-22T10:03:32;26.40;99.90
63875;DHT22;51595;24.180;-110.296;2022-07-22T10:06:01;26.30;99.90
63875;DHT22;51595;24.180;-110.296;2022-07-22T10:08:29;26.10;99.90
63875;DHT22;51595;24.180;-110.296;2022-07-22T10:11:03;26.10;99.90
63875;DHT22;51595;24.180;-110.296;2022-07-22T10:13:31;26.10;99.90
63875;DHT22;51595;24.180;-110.296;2022-07-22T10:15:59;26.10;99.90
63875;DHT22;51595;24.180;-110.296;2022-07-22T10:18:26;26.30;99.90
63875;DHT22;51595;24.180;-110.296;2022-07-22T10:21:06;26.10;99.90
63875;DHT22;51595;24.180;-110.296;2022-07-22T10:23:33;26.00;99.90
63875;DHT22;51595;24.180;-110.296;2022-07-22T10:26:02;26.00;99.90
63875;DHT22;51595;24.180;-110.296;2022-07-22T10:28:31;26.10;99.90
63875;DHT22;51595;24.180;-110.296;2022-07-22T10:33:40;25.90;99.90
63875;DHT22;51595;24.180;-110.296;2022-07-22T10:36:07;26.00;99.90
63875;DHT22;51595;24.180;-110.296;2022-07-22T10:38:35;26.00;99.90
63875;DHT22;51595;24.180;-110.296;2022-07-22T10:41:04;26.10;99.90
63875;DHT22;51595;24.180;-110.296;2022-07-22T10:46:08;26.30;99.90
63875;DHT22;51595;24.180;-110.296;2022-07-22T10:51:06;26.40;99.90
63875;DHT22;51595;24.180;-110.296;2022-07-22T10:56:25;26.30;99.90
63875;DHT22;51595;24.180;-110.296;2022-07-22T11:01:31;26.30;99.90
63875;DHT22;51595;24.180;-110.296;2022-07-22T11:04:12;26.30;99.90
63875;DHT22;51595;24.180;-110.296;2022-07-22T11:06:39;26.40;99.90
63875;DHT22;51595;24.180;-110.296;2022-07-22T11:09:08;26.50;99.90
63875;DHT22;51595;24.180;-110.296;2022-07-22T11:11:46;26.70;99.90
63875;DHT22;51595;24.180;-110.296;2022-07-22T11:14:30;26.70;99.90
63875;DHT22;51595;24.180;-110.296;2022-07-22T11:17:05;26.80;99.90
63875;DHT22;51595;24.180;-110.296;2022-07-22T11:19:33;26.90;99.90
63875;DHT22;51595;24.180;-110.296;2022-07-22T11:22:02;26.90;99.90
63875;DHT22;51595;24.180;-110.296;2022-07-22T11:24:30;26.90;99.90
63875;DHT22;51595;24.180;-110.296;2022-07-22T11:26:58;27.10;99.90
63875;DHT22;51595;24.180;-110.296;2022-07-22T11:29:29;27.00;99.90
63875;DHT22;51595;24.180;-110.296;2022-07-22T11:31:58;27.00;99.90
63875;DHT22;51595;24.180;-110.296;2022-07-22T11:34:25;26.90;99.90
63875;DHT22;51595;24.180;-110.296;2022-07-22T11:36:53;27.00;99.90
63875;DHT22;51595;24.180;-110.296;2022-07-22T11:39:25;27.00;99.90
63875;DHT22;51595;24.180;-110.296;2022-07-22T11:41:54;26.90;99.90
63875;DHT22;51595;24.180;-110.296;2022-07-22T11:44:23;26.90;99.90
63875;DHT22;51595;24.180;-110.296;2022-07-22T11:46:50;26.90;99.90
63875;DHT22;51595;24.180;-110.296;2022-07-22T11:49:19;26.90;99.90
63875;DHT22;51595;24.180;-110.296;2022-07-22T11:51:46;27.00;99.90
63875;DHT22;51595;24.180;-110.296;2022-07-22T11:54:13;27.00;99.90
63875;DHT22;51595;24.180;-110.296;2022-07-22T11:56:40;27.00;99.90
63875;DHT22;51595;24.180;-110.296;2022-07-22T11:59:07;26.80;99.90
63875;DHT22;51595;24.180;-110.296;2022-07-22T12:01:37;26.60;99.90
63875;DHT22;51595;24.180;-110.296;2022-07-22T12:04:09;26.60;99.90
63875;DHT22;51595;24.180;-110.296;2022-07-22T12:06:38;26.70;99.90
63875;DHT22;51595;24.180;-110.296;2022-07-22T12:09:09;26.80;99.90
63875;DHT22;51595;24.180;-110.296;2022-07-22T12:11:38;26.70;99.90
63875;DHT22;51595;24.180;-110.296;2022-07-22T12:14:07;26.90;99.90
63875;DHT22;51595;24.180;-110.296;2022-07-22T12:16:35;26.90;99.90
63875;DHT22;51595;24.180;-110.296;2022-07-22T12:19:06;26.90;99.90
63875;DHT22;51595;24.180;-110.296;2022-07-22T12:21:49;26.90;99.90
63875;DHT22;51595;24.180;-110.296;2022-07-22T12:24:29;26.80;99.90
63875;DHT22;51595;24.180;-110.296;2022-07-22T12:26:58;26.70;99.90
63875;DHT22;51595;24.180;-110.296;2022-07-22T12:32:01;26.50;99.90
63875;DHT22;51595;24.180;-110.296;2022-07-22T12:37:15;26.70;99.90
63875;DHT22;51595;24.180;-110.296;2022-07-22T12:40:11;26.60;99.90
63875;DHT22;51595;24.180;-110.296;2022-07-22T12:42:46;26.50;99.90
63875;DHT22;51595;24.180;-110.296;2022-07-22T12:45:15;26.50;99.90
63875;DHT22;51595;24.180;-110.296;2022-07-22T12:47:47;26.70;99.90
63875;DHT22;51595;24.180;-110.296;2022-07-22T12:52:50;27.00;99.90
63875;DHT22;51595;24.180;-110.296;2022-07-22T12:55:18;27.10;99.90
63875;DHT22;51595;24.180;-110.296;2022-07-22T12:57:44;27.10;99.90
63875;DHT22;51595;24.180;-110.296;2022-07-22T13:00:16;27.30;99.90
63875;DHT22;51595;24.180;-110.296;2022-07-22T13:02:43;27.30;99.90
63875;DHT22;51595;24.180;-110.296;2022-07-22T13:05:09;27.50;99.90
63875;DHT22;51595;24.180;-110.296;2022-07-22T13:07:36;27.50;99.90
63875;DHT22;51595;24.180;-110.296;2022-07-22T13:10:03;27.50;99.90
63875;DHT22;51595;24.180;-110.296;2022-07-22T13:12:29;27.80;99.90
63875;DHT22;51595;24.180;-110.296;2022-07-22T13:14:56;27.90;99.90
63875;DHT22;51595;24.180;-110.296;2022-07-22T13:17:23;28.00;99.90
63875;DHT22;51595;24.180;-110.296;2022-07-22T13:19:49;28.10;99.90
63875;DHT22;51595;24.180;-110.296;2022-07-22T13:22:15;28.30;99.90
63875;DHT22;51595;24.180;-110.296;2022-07-22T13:24:42;28.30;99.90
63875;DHT22;51595;24.180;-110.296;2022-07-22T13:27:08;28.30;99.90
63875;DHT22;51595;24.180;-110.296;2022-07-22T13:29:35;28.30;99.90
63875;DHT22;51595;24.180;-110.296;2022-07-22T13:32:01;28.40;99.90
63875;DHT22;51595;24.180;-110.296;2022-07-22T13:34:28;28.40;99.90
63875;DHT22;51595;24.180;-110.296;2022-07-22T13:36:54;28.50;99.90
63875;DHT22;51595;24.180;-110.296;2022-07-22T13:39:22;28.60;99.90
63875;DHT22;51595;24.180;-110.296;2022-07-22T13:41:48;28.70;99.90
63875;DHT22;51595;24.180;-110.296;2022-07-22T13:44:15;28.80;99.90
63875;DHT22;51595;24.180;-110.296;2022-07-22T13:46:41;28.80;99.90
63875;DHT22;51595;24.180;-110.296;2022-07-22T13:49:08;28.90;99.90
63875;DHT22;51595;24.180;-110.296;2022-07-22T13:51:34;28.90;99.90
63875;DHT22;51595;24.180;-110.296;2022-07-22T13:54:01;29.00;99.90
63875;DHT22;51595;24.180;-110.296;2022-07-22T13:56:27;29.10;99.90
63875;DHT22;51595;24.180;-110.296;2022-07-22T13:58:54;29.30;99.90
63875;DHT22;51595;24.180;-110.296;2022-07-22T14:01:20;29.40;99.90
63875;DHT22;51595;24.180;-110.296;2022-07-22T14:03:47;29.60;99.90
63875;DHT22;51595;24.180;-110.296;2022-07-22T14:06:14;30.00;99.80
63875;DHT22;51595;24.180;-110.296;2022-07-22T14:08:40;30.10;99.00
63875;DHT22;51595;24.180;-110.296;2022-07-22T14:11:07;30.30;98.60
63875;DHT22;51595;24.180;-110.296;2022-07-22T14:13:33;30.50;97.90
63875;DHT22;51595;24.180;-110.296;2022-07-22T14:16:00;30.60;96.90
63875;DHT22;51595;24.180;-110.296;2022-07-22T14:18:46;30.80;95.90
63875;DHT22;51595;24.180;-110.296;2022-07-22T14:21:13;30.80;95.60
63875;DHT22;51595;24.180;-110.296;2022-07-22T14:23:39;30.80;95.40
63875;DHT22;51595;24.180;-110.296;2022-07-22T14:26:06;31.10;94.60
63875;DHT22;51595;24.180;-110.296;2022-07-22T14:28:32;31.10;93.90
63875;DHT22;51595;24.180;-110.296;2022-07-22T14:30:59;31.20;93.40
63875;DHT22;51595;24.180;-110.296;2022-07-22T14:33:25;31.30;93.00
63875;DHT22;51595;24.180;-110.296;2022-07-22T14:35:52;31.40;92.20
63875;DHT22;51595;24.180;-110.296;2022-07-22T14:38:18;31.60;91.70
63875;DHT22;51595;24.180;-110.296;2022-07-22T14:40:45;31.70;90.70
63875;DHT22;51595;24.180;-110.296;2022-07-22T14:43:12;32.00;90.20
63875;DHT22;51595;24.180;-110.296;2022-07-22T14:45:38;32.40;88.90
63875;DHT22;51595;24.180;-110.296;2022-07-22T14:48:05;32.50;88.10
63875;DHT22;51595;24.180;-110.296;2022-07-22T14:50:32;32.70;86.90
63875;DHT22;51595;24.180;-110.296;2022-07-22T14:52:58;32.60;86.10
63875;DHT22;51595;24.180;-110.296;2022-07-22T14:55:25;32.80;85.00
63875;DHT22;51595;24.180;-110.296;2022-07-22T14:57:52;33.00;83.80
63875;DHT22;51595;24.180;-110.296;2022-07-22T15:00:18;33.10;82.30
63875;DHT22;51595;24.180;-110.296;2022-07-22T15:02:45;33.20;81.50
63875;DHT22;51595;24.180;-110.296;2022-07-22T15:05:11;33.30;80.30
63875;DHT22;51595;24.180;-110.296;2022-07-22T15:07:40;33.30;79.30
63875;DHT22;51595;24.180;-110.296;2022-07-22T15:10:07;33.30;79.30
63875;DHT22;51595;24.180;-110.296;2022-07-22T15:12:34;33.30;77.90